sensor_id;sensor_type;location;lat;lon;timestamp;P1;durP1;ratioP1;P2;durP2;ratioP2
4698;SDS011;33708;49.466;11.176;2023-04-12T00:02:12;13.63;;;2.67;;
4698;SDS011;33708;49.466;11.176;2023-04-12T00:04:38;10.77;;;2.93;;
4698;SDS011;33708;49.466;11.176;2023-04-12T00:07:04;17.73;;;3.43;;
4698;SDS011;33708;49.466;11.176;2023-04-12T00:09:30;16.20;;;3.30;;
4698;SDS011;33708;49.466;11.176;2023-04-12T00:11:59;14.27;;;3.47;;
4698;SDS011;33708;49.466;11.176;2023-04-12T00:14:25;13.33;;;2.80;;
4698;SDS011;33708;49.466;11.176;2023-04-12T00:16:51;12.00;;;2.90;;
4698;SDS011;33708;49.466;11.176;2023-04-12T00:19:17;19.53;;;4.50;;
4698;SDS011;33708;49.466;11.176;2023-04-12T00:21:43;11.90;;;2.80;;
4698;SDS011;33708;49.466;11.176;2023-04-12T00:24:09;13.10;;;3.30;;
4698;SDS011;33708;49.466;11.176;2023-04-12T00:26:34;19.20;;;4.47;;
4698;SDS011;33708;49.466;11.176;2023-04-12T00:29:00;21.40;;;6.40;;
4698;SDS011;33708;49.466;11.176;2023-04-12T00:31:26;19.83;;;5.60;;
4698;SDS011;33708;49.466;11.176;2023-04-12T00:33:53;18.83;;;4.77;;
4698;SDS011;33708;49.466;11.176;2023-04-12T00:36:19;15.00;;;3.97;;
4698;SDS011;33708;49.466;11.176;2023-04-12T00:38:45;16.00;;;3.23;;
4698;SDS011;33708;49.466;11.176;2023-04-12T00:41:11;14.90;;;3.60;;
4698;SDS011;33708;49.466;11.176;2023-04-12T00:43:38;10.03;;;2.80;;
4698;SDS011;33708;49.466;11.176;2023-04-12T00:46:07;14.10;;;2.90;;
4698;SDS011;33708;49.466;11.176;2023-04-12T00:48:33;10.27;;;2.47;;
4698;SDS011;33708;49.466;11.176;2023-04-12T00:50:59;13.00;;;2.53;;
4698;SDS011;33708;49.466;11.176;2023-04-12T00:53:25;13.00;;;2.70;;
4698;SDS011;33708;49.466;11.176;2023-04-12T00:55:52;10.13;;;3.00;;
4698;SDS011;33708;49.466;11.176;2023-04-12T00:58:20;12.33;;;3.13;;
4698;SDS011;33708;49.466;11.176;2023-04-12T01:00:48;15.90;;;3.03;;
4698;SDS011;33708;49.466;11.176;2023-04-12T01:03:17;12.43;;;2.90;;
4698;SDS011;33708;49.466;11.176;2023-04-12T01:05:49;15.73;;;2.70;;
4698;SDS011;33708;49.466;11.176;2023-04-12T01:08:41;12.80;;;3.07;;
4698;SDS011;33708;49.466;11.176;2023-04-12T01:11:19;11.23;;;2.73;;
4698;SDS011;33708;49.466;11.176;2023-04-12T01:13:50;12.67;;;2.50;;
4698;SDS011;33708;49.466;11.176;2023-04-12T01:16:34;13.33;;;2.77;;
4698;SDS011;33708;49.466;11.176;2023-04-12T01:27:48;11.57;;;2.60;;
4698;SDS011;33708;49.466;11.176;2023-04-12T01:30:19;18.40;;;2.90;;
4698;SDS011;33708;49.466;11.176;2023-04-12T01:32:51;18.03;;;2.63;;
4698;SDS011;33708;49.466;11.176;2023-04-12T01:35:19;11.70;;;2.47;;
4698;SDS011;33708;49.466;11.176;2023-04-12T01:37:47;10.70;;;2.67;;
4698;SDS011;33708;49.466;11.176;2023-04-12T01:40:13;18.60;;;3.23;;
4698;SDS011;33708;49.466;11.176;2023-04-12T01:42:38;20.33;;;2.97;;
4698;SDS011;33708;49.466;11.176;2023-04-12T01:45:04;14.47;;;3.10;;
4698;SDS011;33708;49.466;11.176;2023-04-12T01:47:31;11.20;;;2.80;;
4698;SDS011;33708;49.466;11.176;2023-04-12T01:52:48;15.97;;;3.10;;
4698;SDS011;33708;49.466;11.176;2023-04-12T01:55:21;9.97;;;2.70;;
4698;SDS011;33708;49.466;11.176;2023-04-12T01:57:49;13.27;;;3.00;;
4698;SDS011;33708;49.466;11.176;2023-04-12T02:00:17;13.70;;;3.13;;
4698;SDS011;33708;49.466;11.176;2023-04-12T02:02:44;12.43;;;2.70;;
4698;SDS011;33708;49.466;11.176;2023-04-12T02:05:09;9.67;;;2.07;;
4698;SDS011;33708;49.466;11.176;2023-04-12T02:07:35;8.87;;;1.83;;
4698;SDS011;33708;49.466;11.176;2023-04-12T02:10:01;11.80;;;2.60;;
4698;SDS011;33708;49.466;11.176;2023-04-12T02:12:27;10.03;;;2.43;;
4698;SDS011;33708;49.466;11.176;2023-04-12T02:14:53;16.33;;;3.20;;
4698;SDS011;33708;49.466;11.176;2023-04-12T02:17:18;9.63;;;2.50;;
4698;SDS011;33708;49.466;11.176;2023-04-12T02:19:45;9.37;;;2.40;;
4698;SDS011;33708;49.466;11.176;2023-04-12T02:22:11;10.50;;;2.80;;
4698;SDS011;33708;49.466;11.176;2023-04-12T02:24:37;9.87;;;2.23;;
4698;SDS011;33708;49.466;11.176;2023-04-12T02:27:02;10.60;;;2.37;;
4698;SDS011;33708;49.466;11.176;2023-04-12T02:29:28;13.47;;;3.17;;
4698;SDS011;33708;49.466;11.176;2023-04-12T02:31:53;14.90;;;3.20;;
4698;SDS011;33708;49.466;11.176;2023-04-12T02:34:19;14.20;;;3.03;;
4698;SDS011;33708;49.466;11.176;2023-04-12T02:36:46;11.50;;;2.97;;
4698;SDS011;33708;49.466;11.176;2023-04-12T02:39:13;12.30;;;3.03;;
4698;SDS011;33708;49.466;11.176;2023-04-12T02:41:42;14.83;;;3.13;;
4698;SDS011;33708;49.466;11.176;2023-04-12T02:44:08;16.50;;;3.67;;
4698;SDS011;33708;49.466;11.176;2023-04-12T02:46:33;12.27;;;2.97;;
4698;SDS011;33708;49.466;11.176;2023-04-12T02:48:59;12.90;;;2.80;;
4698;SDS011;33708;49.466;11.176;2023-04-12T02:51:24;13.50;;;2.77;;
4698;SDS011;33708;49.466;11.176;2023-04-12T02:53:52;9.70;;;2.70;;
4698;SDS011;33708;49.466;11.176;2023-04-12T02:56:17;11.13;;;2.80;;
4698;SDS011;33708;49.466;11.176;2023-04-12T02:58:43;14.20;;;2.73;;
4698;SDS011;33708;49.466;11.176;2023-04-12T03:01:08;12.00;;;2.43;;
4698;SDS011;33708;49.466;11.176;2023-04-12T03:03:36;12.50;;;2.63;;
4698;SDS011;33708;49.466;11.176;2023-04-12T03:06:03;10.07;;;2.53;;
4698;SDS011;33708;49.466;11.176;2023-04-12T03:08:28;13.70;;;2.93;;
4698;SDS011;33708;49.466;11.176;2023-04-12T03:10:55;13.63;;;2.80;;
4698;SDS011;33708;49.466;11.176;2023-04-12T03:13:21;12.17;;;2.90;;
4698;SDS011;33708;49.466;11.176;2023-04-12T03:15:47;17.83;;;3.03;;
4698;SDS011;33708;49.466;11.176;2023-04-12T03:18:13;15.93;;;2.60;;
4698;SDS011;33708;49.466;11.176;2023-04-12T03:20:40;9.57;;;2.70;;
4698;SDS011;33708;49.466;11.176;2023-04-12T03:23:08;13.70;;;2.90;;
4698;SDS011;33708;49.466;11.176;2023-04-12T03:25:34;13.63;;;3.10;;
4698;SDS011;33708;49.466;11.176;2023-04-12T03:28:01;14.03;;;3.00;;
4698;SDS011;33708;49.466;11.176;2023-04-12T03:30:27;13.43;;;3.10;;
4698;SDS011;33708;49.466;11.176;2023-04-12T03:32:52;16.30;;;3.60;;
4698;SDS011;33708;49.466;11.176;2023-04-12T03:35:18;11.97;;;3.00;;
4698;SDS011;33708;49.466;11.176;2023-04-12T03:37:43;13.87;;;3.20;;
4698;SDS011;33708;49.466;11.176;2023-04-12T03:40:09;13.00;;;3.20;;
4698;SDS011;33708;49.466;11.176;2023-04-12T03:42:35;20.83;;;2.20;;
4698;SDS011;33708;49.466;11.176;2023-04-12T03:45:01;12.40;;;2.77;;
4698;SDS011;33708;49.466;11.176;2023-04-12T03:47:27;13.53;;;2.73;;
4698;SDS011;33708;49.466;11.176;2023-04-12T03:49:53;18.80;;;3.10;;
4698;SDS011;33708;49.466;11.176;2023-04-12T03:52:20;13.53;;;2.30;;
4698;SDS011;33708;49.466;11.176;2023-04-12T03:54:45;16.80;;;2.60;;
4698;SDS011;33708;49.466;11.176;2023-04-12T03:57:11;10.83;;;2.77;;
4698;SDS011;33708;49.466;11.176;2023-04-12T03:59:36;15.90;;;2.67;;
4698;SDS011;33708;49.466;11.176;2023-04-12T04:02:02;11.20;;;2.60;;
4698;SDS011;33708;49.466;11.176;2023-04-12T04:04:28;14.70;;;2.77;;
4698;SDS011;33708;49.466;11.176;2023-04-12T04:06:53;11.73;;;2.47;;
4698;SDS011;33708;49.466;11.176;2023-04-12T04:09:20;12.40;;;2.77;;
4698;SDS011;33708;49.466;11.176;2023-04-12T04:11:46;10.60;;;2.30;;
4698;SDS011;33708;49.466;11.176;2023-04-12T04:14:12;14.73;;;2.90;;
4698;SDS011;33708;49.466;11.176;2023-04-12T04:16:37;14.17;;;3.47;;
4698;SDS011;33708;49.466;11.176;2023-04-12T04:19:03;14.67;;;2.70;;
4698;SDS011;33708;49.466;11.176;2023-04-12T04:21:28;10.67;;;2.60;;
4698;SDS011;33708;49.466;11.176;2023-04-12T04:23:57;15.13;;;2.83;;
4698;SDS011;33708;49.466;11.176;2023-04-12T04:26:25;18.57;;;2.80;;
4698;SDS011;33708;49.466;11.176;2023-04-12T04:29:02;12.90;;;3.07;;
4698;SDS011;33708;49.466;11.176;2023-04-12T04:31:28;11.67;;;2.40;;
4698;SDS011;33708;49.466;11.176;2023-04-12T04:33:59;13.30;;;2.80;;
4698;SDS011;33708;49.466;11.176;2023-04-12T04:36:27;11.73;;;2.87;;
4698;SDS011;33708;49.466;11.176;2023-04-12T04:38:53;14.23;;;2.70;;
4698;SDS011;33708;49.466;11.176;2023-04-12T04:41:19;10.47;;;2.87;;
4698;SDS011;33708;49.466;11.176;2023-04-12T04:43:46;14.30;;;3.57;;
4698;SDS011;33708;49.466;11.176;2023-04-12T04:46:13;14.30;;;2.53;;
4698;SDS011;33708;49.466;11.176;2023-04-12T04:48:38;13.10;;;2.50;;
4698;SDS011;33708;49.466;11.176;2023-04-12T04:51:05;11.93;;;2.70;;
4698;SDS011;33708;49.466;11.176;2023-04-12T04:53:31;14.10;;;3.00;;
4698;SDS011;33708;49.466;11.176;2023-04-12T04:55:57;12.30;;;2.63;;
4698;SDS011;33708;49.466;11.176;2023-04-12T04:58:23;10.70;;;2.60;;
4698;SDS011;33708;49.466;11.176;2023-04-12T05:00:49;15.60;;;3.00;;
4698;SDS011;33708;49.466;11.176;2023-04-12T05:03:15;12.57;;;3.13;;
4698;SDS011;33708;49.466;11.176;2023-04-12T05:05:40;12.63;;;3.00;;
4698;SDS011;33708;49.466;11.176;2023-04-12T05:08:06;12.53;;;2.57;;
4698;SDS011;33708;49.466;11.176;2023-04-12T05:10:32;11.47;;;2.67;;
4698;SDS011;33708;49.466;11.176;2023-04-12T05:12:57;10.43;;;2.60;;
4698;SDS011;33708;49.466;11.176;2023-04-12T05:15:23;13.80;;;2.43;;
4698;SDS011;33708;49.466;11.176;2023-04-12T05:17:48;15.47;;;2.50;;
4698;SDS011;33708;49.466;11.176;2023-04-12T05:20:14;10.90;;;2.50;;
4698;SDS011;33708;49.466;11.176;2023-04-12T05:22:40;11.00;;;2.47;;
4698;SDS011;33708;49.466;11.176;2023-04-12T05:25:06;15.40;;;3.27;;
4698;SDS011;33708;49.466;11.176;2023-04-12T05:27:32;18.10;;;2.77;;
4698;SDS011;33708;49.466;11.176;2023-04-12T05:29:57;11.93;;;2.60;;
4698;SDS011;33708;49.466;11.176;2023-04-12T05:32:23;12.03;;;2.67;;
4698;SDS011;33708;49.466;11.176;2023-04-12T05:34:50;10.53;;;2.73;;
4698;SDS011;33708;49.466;11.176;2023-04-12T05:37:16;12.13;;;2.17;;
4698;SDS011;33708;49.466;11.176;2023-04-12T05:39:41;11.00;;;2.37;;
4698;SDS011;33708;49.466;11.176;2023-04-12T05:42:07;11.23;;;2.53;;
4698;SDS011;33708;49.466;11.176;2023-04-12T05:44:37;11.57;;;2.70;;
4698;SDS011;33708;49.466;11.176;2023-04-12T05:47:02;13.20;;;2.93;;
4698;SDS011;33708;49.466;11.176;2023-04-12T05:49:29;10.53;;;2.80;;
4698;SDS011;33708;49.466;11.176;2023-04-12T05:51:57;11.43;;;2.70;;
4698;SDS011;33708;49.466;11.176;2023-04-12T05:54:23;11.43;;;2.50;;
4698;SDS011;33708;49.466;11.176;2023-04-12T05:56:49;12.50;;;2.83;;
4698;SDS011;33708;49.466;11.176;2023-04-12T05:59:16;13.23;;;2.60;;
4698;SDS011;33708;49.466;11.176;2023-04-12T06:01:43;13.17;;;2.67;;
4698;SDS011;33708;49.466;11.176;2023-04-12T06:04:09;14.97;;;3.03;;
4698;SDS011;33708;49.466;11.176;2023-04-12T06:06:35;12.03;;;2.90;;
4698;SDS011;33708;49.466;11.176;2023-04-12T06:09:01;11.80;;;2.93;;
4698;SDS011;33708;49.466;11.176;2023-04-12T06:11:28;10.53;;;2.80;;
4698;SDS011;33708;49.466;11.176;2023-04-12T06:13:54;15.00;;;2.70;;
4698;SDS011;33708;49.466;11.176;2023-04-12T06:16:20;10.70;;;2.53;;
4698;SDS011;33708;49.466;11.176;2023-04-12T06:18:45;15.20;;;3.23;;
4698;SDS011;33708;49.466;11.176;2023-04-12T06:21:11;10.63;;;2.67;;
4698;SDS011;33708;49.466;11.176;2023-04-12T06:23:37;11.00;;;2.70;;
4698;SDS011;33708;49.466;11.176;2023-04-12T06:26:02;11.97;;;3.00;;
4698;SDS011;33708;49.466;11.176;2023-04-12T06:28:28;13.93;;;3.57;;
4698;SDS011;33708;49.466;11.176;2023-04-12T06:30:54;14.93;;;3.57;;
4698;SDS011;33708;49.466;11.176;2023-04-12T06:33:20;12.70;;;3.70;;
4698;SDS011;33708;49.466;11.176;2023-04-12T06:35:48;12.13;;;3.73;;
4698;SDS011;33708;49.466;11.176;2023-04-12T06:38:14;13.23;;;3.47;;
4698;SDS011;33708;49.466;11.176;2023-04-12T06:40:41;12.50;;;3.20;;
4698;SDS011;33708;49.466;11.176;2023-04-12T06:43:06;14.13;;;3.43;;
4698;SDS011;33708;49.466;11.176;2023-04-12T06:45:32;14.07;;;3.50;;
4698;SDS011;33708;49.466;11.176;2023-04-12T06:47:57;11.33;;;3.30;;
4698;SDS011;33708;49.466;11.176;2023-04-12T06:50:24;13.47;;;3.90;;
4698;SDS011;33708;49.466;11.176;2023-04-12T06:52:50;15.27;;;3.90;;
4698;SDS011;33708;49.466;11.176;2023-04-12T06:55:15;18.50;;;3.30;;
4698;SDS011;33708;49.466;11.176;2023-04-12T06:57:41;16.00;;;3.90;;
4698;SDS011;33708;49.466;11.176;2023-04-12T07:00:08;11.53;;;3.70;;
4698;SDS011;33708;49.466;11.176;2023-04-12T07:02:34;11.93;;;3.60;;
4698;SDS011;33708;49.466;11.176;2023-04-12T07:05:00;13.53;;;3.93;;
4698;SDS011;33708;49.466;11.176;2023-04-12T07:07:26;17.63;;;4.10;;
4698;SDS011;33708;49.466;11.176;2023-04-12T07:09:51;15.10;;;3.87;;
4698;SDS011;33708;49.466;11.176;2023-04-12T07:12:17;13.53;;;3.23;;
4698;SDS011;33708;49.466;11.176;2023-04-12T07:14:42;13.00;;;3.70;;
4698;SDS011;33708;49.466;11.176;2023-04-12T07:17:08;13.93;;;3.93;;
4698;SDS011;33708;49.466;11.176;2023-04-12T07:19:34;13.43;;;4.20;;
4698;SDS011;33708;49.466;11.176;2023-04-12T07:22:00;13.00;;;4.50;;
4698;SDS011;33708;49.466;11.176;2023-04-12T07:24:26;14.47;;;3.70;;
4698;SDS011;33708;49.466;11.176;2023-04-12T07:26:52;12.53;;;4.03;;
4698;SDS011;33708;49.466;11.176;2023-04-12T07:29:21;11.67;;;4.03;;
4698;SDS011;33708;49.466;11.176;2023-04-12T07:31:47;11.80;;;4.10;;
4698;SDS011;33708;49.466;11.176;2023-04-12T07:34:12;11.67;;;4.20;;
4698;SDS011;33708;49.466;11.176;2023-04-12T07:36:38;13.30;;;4.50;;
4698;SDS011;33708;49.466;11.176;2023-04-12T07:39:03;12.67;;;4.10;;
4698;SDS011;33708;49.466;11.176;2023-04-12T07:41:29;12.30;;;4.00;;
4698;SDS011;33708;49.466;11.176;2023-04-12T07:43:55;10.90;;;4.07;;
4698;SDS011;33708;49.466;11.176;2023-04-12T07:46:21;11.30;;;3.60;;
4698;SDS011;33708;49.466;11.176;2023-04-12T07:48:46;11.10;;;3.20;;
4698;SDS011;33708;49.466;11.176;2023-04-12T07:51:12;10.60;;;3.23;;
4698;SDS011;33708;49.466;11.176;2023-04-12T07:53:37;11.43;;;3.07;;
4698;SDS011;33708;49.466;11.176;2023-04-12T07:56:06;19.80;;;2.87;;
4698;SDS011;33708;49.466;11.176;2023-04-12T07:58:32;13.07;;;3.20;;
4698;SDS011;33708;49.466;11.176;2023-04-12T08:00:58;14.30;;;3.23;;
4698;SDS011;33708;49.466;11.176;2023-04-12T08:03:25;10.20;;;2.60;;
4698;SDS011;33708;49.466;11.176;2023-04-12T08:05:51;10.63;;;3.03;;
4698;SDS011;33708;49.466;11.176;2023-04-12T08:08:19;8.50;;;2.30;;
4698;SDS011;33708;49.466;11.176;2023-04-12T08:10:46;10.00;;;2.80;;
4698;SDS011;33708;49.466;11.176;2023-04-12T08:13:12;9.07;;;2.40;;
4698;SDS011;33708;49.466;11.176;2023-04-12T08:15:38;8.67;;;1.93;;
4698;SDS011;33708;49.466;11.176;2023-04-12T08:18:04;10.83;;;2.80;;
4698;SDS011;33708;49.466;11.176;2023-04-12T08:20:29;10.27;;;2.33;;
4698;SDS011;33708;49.466;11.176;2023-04-12T08:22:55;8.43;;;2.00;;
4698;SDS011;33708;49.466;11.176;2023-04-12T08:25:21;9.20;;;2.00;;
4698;SDS011;33708;49.466;11.176;2023-04-12T08:27:47;10.33;;;2.60;;
4698;SDS011;33708;49.466;11.176;2023-04-12T08:30:13;10.67;;;2.57;;
4698;SDS011;33708;49.466;11.176;2023-04-12T08:32:39;8.80;;;1.90;;
4698;SDS011;33708;49.466;11.176;2023-04-12T08:35:06;10.07;;;2.30;;
4698;SDS011;33708;49.466;11.176;2023-04-12T08:37:32;9.23;;;2.50;;
4698;SDS011;33708;49.466;11.176;2023-04-12T08:40:04;8.30;;;2.10;;
4698;SDS011;33708;49.466;11.176;2023-04-12T08:42:35;9.70;;;2.03;;
4698;SDS011;33708;49.466;11.176;2023-04-12T08:45:08;8.63;;;2.20;;
4698;SDS011;33708;49.466;11.176;2023-04-12T08:47:36;8.23;;;2.00;;
4698;SDS011;33708;49.466;11.176;2023-04-12T08:50:03;10.40;;;2.17;;
4698;SDS011;33708;49.466;11.176;2023-04-12T08:52:33;9.47;;;2.00;;
4698;SDS011;33708;49.466;11.176;2023-04-12T08:55:02;10.83;;;2.30;;
4698;SDS011;33708;49.466;11.176;2023-04-12T08:57:32;9.13;;;2.10;;
4698;SDS011;33708;49.466;11.176;2023-04-12T08:59:59;9.20;;;2.17;;
4698;SDS011;33708;49.466;11.176;2023-04-12T09:02:26;8.13;;;2.03;;
4698;SDS011;33708;49.466;11.176;2023-04-12T09:04:52;8.57;;;2.10;;
4698;SDS011;33708;49.466;11.176;2023-04-12T09:07:21;8.80;;;2.10;;
4698;SDS011;33708;49.466;11.176;2023-04-12T09:09:47;8.57;;;1.90;;
4698;SDS011;33708;49.466;11.176;2023-04-12T09:12:14;8.00;;;2.00;;
4698;SDS011;33708;49.466;11.176;2023-04-12T09:14:40;7.87;;;1.80;;
4698;SDS011;33708;49.466;11.176;2023-04-12T09:17:25;9.50;;;2.20;;
4698;SDS011;33708;49.466;11.176;2023-04-12T09:19:52;9.37;;;1.87;;
4698;SDS011;33708;49.466;11.176;2023-04-12T09:22:34;8.70;;;2.07;;
4698;SDS011;33708;49.466;11.176;2023-04-12T09:25:00;10.47;;;2.40;;
4698;SDS011;33708;49.466;11.176;2023-04-12T09:27:26;8.90;;;2.17;;
4698;SDS011;33708;49.466;11.176;2023-04-12T09:30:06;8.60;;;2.30;;
4698;SDS011;33708;49.466;11.176;2023-04-12T09:32:32;9.97;;;2.53;;
4698;SDS011;33708;49.466;11.176;2023-04-12T09:34:58;8.10;;;2.27;;
4698;SDS011;33708;49.466;11.176;2023-04-12T09:37:29;10.60;;;2.80;;
4698;SDS011;33708;49.466;11.176;2023-04-12T09:39:59;8.83;;;2.30;;
4698;SDS011;33708;49.466;11.176;2023-04-12T09:42:26;9.07;;;2.37;;
4698;SDS011;33708;49.466;11.176;2023-04-12T09:44:52;8.67;;;2.43;;
4698;SDS011;33708;49.466;11.176;2023-04-12T09:47:18;8.93;;;2.20;;
4698;SDS011;33708;49.466;11.176;2023-04-12T09:49:44;7.80;;;2.00;;
4698;SDS011;33708;49.466;11.176;2023-04-12T09:52:11;9.70;;;1.97;;
4698;SDS011;33708;49.466;11.176;2023-04-12T09:54:42;9.00;;;2.83;;
4698;SDS011;33708;49.466;11.176;2023-04-12T09:57:09;10.60;;;3.57;;
4698;SDS011;33708;49.466;11.176;2023-04-12T09:59:36;10.07;;;3.37;;
4698;SDS011;33708;49.466;11.176;2023-04-12T10:02:25;10.70;;;3.30;;
4698;SDS011;33708;49.466;11.176;2023-04-12T10:04:50;9.90;;;3.70;;
4698;SDS011;33708;49.466;11.176;2023-04-12T10:07:17;11.43;;;3.80;;
4698;SDS011;33708;49.466;11.176;2023-04-12T10:09:43;11.00;;;4.20;;
4698;SDS011;33708;49.466;11.176;2023-04-12T10:12:10;15.40;;;4.80;;
4698;SDS011;33708;49.466;11.176;2023-04-12T10:14:36;10.40;;;4.20;;
4698;SDS011;33708;49.466;11.176;2023-04-12T10:17:03;10.10;;;3.97;;
4698;SDS011;33708;49.466;11.176;2023-04-12T10:19:30;12.10;;;3.50;;
4698;SDS011;33708;49.466;11.176;2023-04-12T10:21:57;13.63;;;3.50;;
4698;SDS011;33708;49.466;11.176;2023-04-12T10:24:24;10.63;;;2.87;;
4698;SDS011;33708;49.466;11.176;2023-04-12T10:26:54;10.43;;;2.90;;
4698;SDS011;33708;49.466;11.176;2023-04-12T10:29:30;8.90;;;2.40;;
4698;SDS011;33708;49.466;11.176;2023-04-12T10:32:17;7.40;;;2.27;;
4698;SDS011;33708;49.466;11.176;2023-04-12T10:34:51;8.13;;;2.13;;
4698;SDS011;33708;49.466;11.176;2023-04-12T10:37:18;8.23;;;2.07;;
4698;SDS011;33708;49.466;11.176;2023-04-12T10:39:44;8.97;;;2.20;;
4698;SDS011;33708;49.466;11.176;2023-04-12T10:44:55;8.50;;;1.73;;
4698;SDS011;33708;49.466;11.176;2023-04-12T10:50:19;7.80;;;2.03;;
4698;SDS011;33708;49.466;11.176;2023-04-12T10:55:39;16.00;;;2.40;;
4698;SDS011;33708;49.466;11.176;2023-04-12T10:58:53;7.80;;;2.20;;
4698;SDS011;33708;49.466;11.176;2023-04-12T11:01:12;9.03;;;2.27;;
4698;SDS011;33708;49.466;11.176;2023-04-12T11:04:03;8.57;;;2.23;;
4698;SDS011;33708;49.466;11.176;2023-04-12T11:12:11;8.50;;;2.27;;
4698;SDS011;33708;49.466;11.176;2023-04-12T11:14:44;10.17;;;2.40;;
4698;SDS011;33708;49.466;11.176;2023-04-12T11:19:38;9.43;;;2.20;;
4698;SDS011;33708;49.466;11.176;2023-04-12T11:22:06;10.13;;;2.33;;
4698;SDS011;33708;49.466;11.176;2023-04-12T11:24:36;10.67;;;2.47;;
4698;SDS011;33708;49.466;11.176;2023-04-12T11:27:02;9.37;;;2.23;;
4698;SDS011;33708;49.466;11.176;2023-04-12T11:29:28;10.37;;;2.40;;
4698;SDS011;33708;49.466;11.176;2023-04-12T11:31:56;8.30;;;2.27;;
4698;SDS011;33708;49.466;11.176;2023-04-12T11:34:22;10.07;;;2.47;;
4698;SDS011;33708;49.466;11.176;2023-04-12T11:36:52;10.33;;;3.60;;
4698;SDS011;33708;49.466;11.176;2023-04-12T11:39:19;9.80;;;2.83;;
4698;SDS011;33708;49.466;11.176;2023-04-12T11:41:48;9.90;;;3.13;;
4698;SDS011;33708;49.466;11.176;2023-04-12T11:44:14;10.13;;;3.10;;
4698;SDS011;33708;49.466;11.176;2023-04-12T11:46:43;9.90;;;3.00;;
4698;SDS011;33708;49.466;11.176;2023-04-12T11:49:09;12.23;;;3.60;;
4698;SDS011;33708;49.466;11.176;2023-04-12T11:51:38;9.80;;;2.53;;
4698;SDS011;33708;49.466;11.176;2023-04-12T11:54:03;10.80;;;2.63;;
4698;SDS011;33708;49.466;11.176;2023-04-12T11:56:29;10.00;;;2.47;;
4698;SDS011;33708;49.466;11.176;2023-04-12T11:58:56;10.73;;;2.63;;
4698;SDS011;33708;49.466;11.176;2023-04-12T12:01:22;8.07;;;2.43;;
4698;SDS011;33708;49.466;11.176;2023-04-12T12:03:48;10.33;;;2.87;;
4698;SDS011;33708;49.466;11.176;2023-04-12T12:06:14;11.60;;;2.70;;
4698;SDS011;33708;49.466;11.176;2023-04-12T12:08:40;9.70;;;2.57;;
4698;SDS011;33708;49.466;11.176;2023-04-12T12:11:06;9.23;;;2.70;;
4698;SDS011;33708;49.466;11.176;2023-04-12T12:13:50;8.83;;;2.30;;
4698;SDS011;33708;49.466;11.176;2023-04-12T12:16:17;11.67;;;2.70;;
4698;SDS011;33708;49.466;11.176;2023-04-12T12:18:48;9.97;;;2.60;;
4698;SDS011;33708;49.466;11.176;2023-04-12T12:21:14;10.67;;;3.27;;
4698;SDS011;33708;49.466;11.176;2023-04-12T12:23:43;11.70;;;4.97;;
4698;SDS011;33708;49.466;11.176;2023-04-12T12:26:18;11.90;;;3.23;;
4698;SDS011;33708;49.466;11.176;2023-04-12T12:28:49;11.10;;;3.43;;
4698;SDS011;33708;49.466;11.176;2023-04-12T12:31:21;10.30;;;3.60;;
4698;SDS011;33708;49.466;11.176;2023-04-12T12:33:47;11.10;;;4.50;;
4698;SDS011;33708;49.466;11.176;2023-04-12T12:36:16;12.40;;;3.27;;
4698;SDS011;33708;49.466;11.176;2023-04-12T12:38:45;10.87;;;3.97;;
4698;SDS011;33708;49.466;11.176;2023-04-12T12:41:20;14.13;;;3.20;;
4698;SDS011;33708;49.466;11.176;2023-04-12T12:43:47;10.80;;;3.23;;
4698;SDS011;33708;49.466;11.176;2023-04-12T12:46:15;13.50;;;3.20;;
4698;SDS011;33708;49.466;11.176;2023-04-12T12:48:43;12.07;;;3.40;;
4698;SDS011;33708;49.466;11.176;2023-04-12T12:51:10;10.17;;;3.17;;
4698;SDS011;33708;49.466;11.176;2023-04-12T12:53:40;10.40;;;3.70;;
4698;SDS011;33708;49.466;11.176;2023-04-12T12:56:09;10.00;;;3.17;;
4698;SDS011;33708;49.466;11.176;2023-04-12T12:58:36;9.70;;;3.43;;
4698;SDS011;33708;49.466;11.176;2023-04-12T13:01:02;9.87;;;3.20;;
4698;SDS011;33708;49.466;11.176;2023-04-12T13:03:29;10.37;;;2.37;;
4698;SDS011;33708;49.466;11.176;2023-04-12T13:05:54;10.10;;;2.77;;
4698;SDS011;33708;49.466;11.176;2023-04-12T13:08:21;9.03;;;2.80;;
4698;SDS011;33708;49.466;11.176;2023-04-12T13:10:49;10.53;;;3.20;;
4698;SDS011;33708;49.466;11.176;2023-04-12T13:13:16;15.10;;;3.20;;
4698;SDS011;33708;49.466;11.176;2023-04-12T13:15:42;10.00;;;3.20;;
4698;SDS011;33708;49.466;11.176;2023-04-12T13:18:07;9.40;;;3.10;;
4698;SDS011;33708;49.466;11.176;2023-04-12T13:20:33;9.80;;;2.80;;
4698;SDS011;33708;49.466;11.176;2023-04-12T13:22:59;15.70;;;3.40;;
4698;SDS011;33708;49.466;11.176;2023-04-12T13:25:25;12.80;;;2.80;;
4698;SDS011;33708;49.466;11.176;2023-04-12T13:27:51;12.23;;;3.40;;
4698;SDS011;33708;49.466;11.176;2023-04-12T13:30:17;11.83;;;3.83;;
4698;SDS011;33708;49.466;11.176;2023-04-12T13:32:43;13.07;;;2.77;;
4698;SDS011;33708;49.466;11.176;2023-04-12T13:35:09;9.33;;;3.20;;
4698;SDS011;33708;49.466;11.176;2023-04-12T13:37:35;10.00;;;3.27;;
4698;SDS011;33708;49.466;11.176;2023-04-12T13:40:01;10.40;;;3.00;;
4698;SDS011;33708;49.466;11.176;2023-04-12T13:42:27;9.67;;;3.40;;
4698;SDS011;33708;49.466;11.176;2023-04-12T13:44:53;10.30;;;3.27;;
4698;SDS011;33708;49.466;11.176;2023-04-12T13:47:19;12.23;;;3.20;;
4698;SDS011;33708;49.466;11.176;2023-04-12T13:49:45;9.90;;;3.17;;
4698;SDS011;33708;49.466;11.176;2023-04-12T13:52:11;8.97;;;3.00;;
4698;SDS011;33708;49.466;11.176;2023-04-12T13:54:37;10.93;;;3.37;;
4698;SDS011;33708;49.466;11.176;2023-04-12T13:57:03;14.47;;;2.87;;
4698;SDS011;33708;49.466;11.176;2023-04-12T13:59:29;9.67;;;2.90;;
4698;SDS011;33708;49.466;11.176;2023-04-12T14:01:54;13.63;;;3.57;;
4698;SDS011;33708;49.466;11.176;2023-04-12T14:04:20;9.43;;;2.87;;
4698;SDS011;33708;49.466;11.176;2023-04-12T14:06:46;11.60;;;3.63;;
4698;SDS011;33708;49.466;11.176;2023-04-12T14:09:27;9.00;;;3.10;;
4698;SDS011;33708;49.466;11.176;2023-04-12T14:11:55;9.80;;;3.00;;
4698;SDS011;33708;49.466;11.176;2023-04-12T14:14:21;10.13;;;3.23;;
4698;SDS011;33708;49.466;11.176;2023-04-12T14:16:51;10.50;;;3.73;;
4698;SDS011;33708;49.466;11.176;2023-04-12T14:19:21;9.90;;;3.40;;
4698;SDS011;33708;49.466;11.176;2023-04-12T14:21:49;10.30;;;4.50;;
4698;SDS011;33708;49.466;11.176;2023-04-12T14:24:17;10.17;;;3.70;;
4698;SDS011;33708;49.466;11.176;2023-04-12T14:26:44;12.03;;;3.20;;
4698;SDS011;33708;49.466;11.176;2023-04-12T14:29:10;11.07;;;3.40;;
4698;SDS011;33708;49.466;11.176;2023-04-12T14:31:36;10.40;;;3.53;;
4698;SDS011;33708;49.466;11.176;2023-04-12T14:34:02;13.30;;;3.67;;
4698;SDS011;33708;49.466;11.176;2023-04-12T14:36:29;10.50;;;3.70;;
4698;SDS011;33708;49.466;11.176;2023-04-12T14:38:55;12.10;;;3.93;;
4698;SDS011;33708;49.466;11.176;2023-04-12T14:41:20;10.80;;;4.03;;
4698;SDS011;33708;49.466;11.176;2023-04-12T14:43:46;9.03;;;3.13;;
4698;SDS011;33708;49.466;11.176;2023-04-12T14:46:11;11.13;;;3.60;;
4698;SDS011;33708;49.466;11.176;2023-04-12T14:48:37;11.63;;;4.07;;
4698;SDS011;33708;49.466;11.176;2023-04-12T14:51:03;11.00;;;3.50;;
4698;SDS011;33708;49.466;11.176;2023-04-12T14:53:29;15.50;;;4.17;;
4698;SDS011;33708;49.466;11.176;2023-04-12T14:55:55;11.03;;;4.07;;
4698;SDS011;33708;49.466;11.176;2023-04-12T14:58:21;10.00;;;3.30;;
4698;SDS011;33708;49.466;11.176;2023-04-12T15:00:46;9.30;;;3.20;;
4698;SDS011;33708;49.466;11.176;2023-04-12T15:03:14;8.80;;;2.57;;
4698;SDS011;33708;49.466;11.176;2023-04-12T15:05:41;16.70;;;3.47;;
4698;SDS011;33708;49.466;11.176;2023-04-12T15:08:07;10.03;;;3.10;;